Time;durP1;ratioP1;P1;durP2;ratioP2;P2;SDS_P1;SDS_P2;PMS_P1;PMS_P2;Temp;Humidity;BMP_temperature;BMP_pressure;BME280_temperature;BME280_humidity;BME280_pressure;Samples;Min_cycle;Max_cycle;Signal;HPM_P1;HPM_P2
2021/12/29 00:00:05;;;;;;;;;;;21.20;46.80;;;;;;1590745;75;1918;-68
2021/12/29 00:02:07;;;;;;;;;;;21.20;46.80;;;;;;1590782;75;724;-67
2021/12/29 00:04:09;;;;;;;;;;;21.20;46.80;;;;;;1591405;74;774;-67
2021/12/29 00:06:11;;;;;;;;;;;21.20;46.80;;;;;;1595022;74;727;-68
2021/12/29 00:08:13;;;;;;;;;;;21.20;46.80;;;;;;1595112;74;679;-69
2021/12/29 00:10:15;;;;;;;;;;;21.20;46.80;;;;;;1595212;74;1136;-68
2021/12/29 00:12:24;;;;;;;;;;;21.20;46.80;;;;;;1595085;74;705;-68
2021/12/29 00:14:21;;;;;;;;;;;21.20;46.70;;;;;;1593611;74;1513;-68
2021/12/29 00:16:22;;;;;;;;;;;21.10;46.80;;;;;;1595143;74;652;-67
2021/12/29 00:18:28;;;;;;;;;;;21.20;46.80;;;;;;1594942;74;1930;-68
2021/12/29 00:20:31;;;;;;;;;;;21.10;46.80;;;;;;1595151;74;1138;-68
2021/12/29 00:22:33;;;;;;;;;;;21.20;46.80;;;;;;1595033;74;766;-68
2021/12/29 00:24:35;;;;;;;;;;;21.20;46.80;;;;;;1595182;74;729;-67
2021/12/29 00:26:37;;;;;;;;;;;21.20;46.80;;;;;;1595114;74;707;-69
2021/12/29 00:28:38;;;;;;;;;;;21.20;46.80;;;;;;1595093;74;742;-67
2021/12/29 00:30:41;;;;;;;;;;;21.20;46.80;;;;;;1603650;74;1161;-67
2021/12/29 00:32:43;;;;;;;;;;;21.20;46.80;;;;;;1595079;74;778;-67
2021/12/29 00:34:45;;;;;;;;;;;21.20;46.80;;;;;;1594997;74;789;-67
2021/12/29 00:36:46;;;;;;;;;;;21.20;46.80;;;;;;1595025;74;766;-68
2021/12/29 00:38:48;;;;;;;;;;;21.20;46.80;;;;;;1594947;73;1924;-69
2021/12/29 00:40:50;;;;;;;;;;;21.20;46.80;;;;;;1595031;74;1119;-68
2021/12/29 00:42:52;;;;;;;;;;;21.20;46.80;;;;;;1595031;74;845;-68
2021/12/29 00:44:54;;;;;;;;;;;21.10;46.80;;;;;;1595131;74;619;-68
2021/12/29 00:46:56;;;;;;;;;;;21.20;46.80;;;;;;1595046;74;729;-68
2021/12/29 00:48:58;;;;;;;;;;;21.20;46.80;;;;;;1603630;74;654;-68
2021/12/29 00:51:00;;;;;;;;;;;21.20;46.70;;;;;;1595061;74;1125;-70
2021/12/29 00:53:02;;;;;;;;;;;21.20;46.80;;;;;;1570381;75;1147;-67
2021/12/29 00:55:04;;;;;;;;;;;21.20;46.70;;;;;;1595161;74;764;-68
2021/12/29 00:57:06;;;;;;;;;;;21.20;46.80;;;;;;1595092;74;754;-67
2021/12/29 00:59:08;;;;;;;;;;;21.10;46.80;;;;;;1594991;74;1987;-67
2021/12/29 01:01:10;;;;;;;;;;;21.20;46.80;;;;;;1595031;74;1114;-67
2021/12/29 01:03:12;;;;;;;;;;;21.20;46.80;;;;;;1595004;74;764;-67
2021/12/29 01:05:14;;;;;;;;;;;21.20;46.70;;;;;;1598781;74;755;-68
2021/12/29 01:07:16;;;;;;;;;;;21.20;46.80;;;;;;1590941;75;684;-68
2021/12/29 01:09:18;;;;;;;;;;;21.20;46.80;;;;;;1590902;75;778;-68
2021/12/29 01:11:20;;;;;;;;;;;21.20;46.70;;;;;;1590987;75;1104;-67
2021/12/29 01:13:30;;;;;;;;;;;21.10;46.70;;;;;;1590845;75;672;-69
2021/12/29 01:15:31;;;;;;;;;;;21.20;46.80;;;;;;1589484;74;1562;-68
2021/12/29 01:17:31;;;;;;;;;;;21.20;46.80;;;;;;1590230;74;1608;-68
2021/12/29 01:19:33;;;;;;;;;;;21.20;46.80;;;;;;1590758;75;1902;-68
2021/12/29 01:21:35;;;;;;;;;;;21.10;46.70;;;;;;1591055;75;716;-68
2021/12/29 01:23:37;;;;;;;;;;;21.10;46.80;;;;;;1590829;75;680;-67
2021/12/29 01:25:39;;;;;;;;;;;21.20;46.70;;;;;;1590870;75;748;-67
2021/12/29 01:27:40;;;;;;;;;;;21.10;46.70;;;;;;1591086;75;629;-68
2021/12/29 01:29:42;;;;;;;;;;;21.20;46.70;;;;;;1590880;75;1208;-70
2021/12/29 01:31:44;;;;;;;;;;;21.20;46.70;;;;;;1590907;75;745;-67
2021/12/29 01:33:46;;;;;;;;;;;21.20;46.70;;;;;;1590945;75;780;-67
2021/12/29 01:35:48;;;;;;;;;;;21.20;46.70;;;;;;1590779;75;708;-68
2021/12/29 01:37:50;;;;;;;;;;;21.20;46.70;;;;;;1590908;75;721;-68
2021/12/29 01:39:52;;;;;;;;;;;21.10;46.70;;;;;;1590795;75;1929;-67
2021/12/29 01:41:54;;;;;;;;;;;21.10;46.70;;;;;;1589321;74;748;-67
2021/12/29 01:43:56;;;;;;;;;;;21.10;46.70;;;;;;1573319;73;781;-68
2021/12/29 01:45:58;;;;;;;;;;;21.20;46.60;;;;;;1603865;73;633;-67
2021/12/29 01:48:00;;;;;;;;;;;21.20;46.70;;;;;;1595228;74;638;-68
2021/12/29 01:50:03;;;;;;;;;;;21.20;46.70;;;;;;1594990;74;1131;-67
2021/12/29 01:52:12;;;;;;;;;;;21.10;46.70;;;;;;1595120;74;653;-67
2021/12/29 01:54:16;;;;;;;;;;;21.10;46.70;;;;;;1593631;74;1620;-69
2021/12/29 01:56:18;;;;;;;;;;;21.20;46.70;;;;;;1592030;74;686;-68
2021/12/29 01:58:20;;;;;;;;;;;21.20;46.60;;;;;;1588106;74;795;-68
2021/12/29 02:00:22;;;;;;;;;;;21.10;46.70;;;;;;1595033;74;1921;-67
2021/12/29 02:02:24;;;;;;;;;;;21.20;46.70;;;;;;1570404;75;1118;-68
2021/12/29 02:04:26;;;;;;;;;;;21.20;46.60;;;;;;1595068;74;740;-67
2021/12/29 02:06:28;;;;;;;;;;;21.20;46.70;;;;;;1594936;74;736;-68
2021/12/29 02:08:32;;;;;;;;;;;21.20;46.70;;;;;;1595216;74;719;-67
2021/12/29 02:10:40;;;;;;;;;;;21.10;46.70;;;;;;1595115;74;1125;-68
2021/12/29 02:12:37;;;;;;;;;;;21.20;46.70;;;;;;1602301;74;1635;-67
2021/12/29 02:14:39;;;;;;;;;;;21.20;46.70;;;;;;1603731;73;770;-67
2021/12/29 02:16:41;;;;;;;;;;;21.10;46.70;;;;;;1603583;74;743;-67
2021/12/29 02:18:45;;;;;;;;;;;21.20;46.70;;;;;;1595162;74;747;-68
2021/12/29 02:20:47;;;;;;;;;;;21.10;46.60;;;;;;1593879;74;2133;-67
2021/12/29 02:23:00;;;;;;;;;;;21.20;46.70;;;;;;1603675;74;707;-67
2021/12/29 02:25:06;;;;;;;;;;;21.10;46.60;;;;;;1592667;74;1627;-65
2021/12/29 02:26:56;;;;;;;;;;;21.20;46.70;;;;;;1600403;74;1607;-68
2021/12/29 02:29:00;;;;;;;;;;;21.10;46.70;;;;;;1595162;74;797;-67
2021/12/29 02:31:02;;;;;;;;;;;21.10;46.70;;;;;;1595049;74;1143;-69
2021/12/29 02:33:06;;;;;;;;;;;21.10;46.70;;;;;;1595087;74;728;-70
2021/12/29 02:35:08;;;;;;;;;;;21.20;46.60;;;;;;1595051;74;799;-68
2021/12/29 02:37:18;;;;;;;;;;;21.10;46.70;;;;;;1595056;74;728;-67
2021/12/29 02:39:14;;;;;;;;;;;21.10;46.60;;;;;;1601791;74;1929;-68
2021/12/29 02:41:16;;;;;;;;;;;21.20;46.60;;;;;;1595057;74;1091;-68
2021/12/29 02:43:21;;;;;;;;;;;21.10;46.70;;;;;;1595140;74;754;-67
2021/12/29 02:45:25;;;;;;;;;;;21.20;46.60;;;;;;1594745;74;1688;-67
2021/12/29 02:47:25;;;;;;;;;;;21.20;46.70;;;;;;1594483;74;1695;-68
2021/12/29 02:49:27;;;;;;;;;;;21.20;46.60;;;;;;1595224;74;728;-70
2021/12/29 02:51:30;;;;;;;;;;;21.10;46.60;;;;;;1595057;74;805;-67
2021/12/29 02:53:32;;;;;;;;;;;21.10;46.60;;;;;;1595115;74;761;-69
2021/12/29 02:55:33;;;;;;;;;;;21.10;46.60;;;;;;1595032;74;777;-67
2021/12/29 02:57:35;;;;;;;;;;;21.10;46.60;;;;;;1603308;74;781;-68
2021/12/29 02:59:37;;;;;;;;;;;21.20;46.60;;;;;;1590910;75;1946;-67
2021/12/29 03:01:39;;;;;;;;;;;21.10;46.60;;;;;;1590812;75;707;-67
2021/12/29 03:03:41;;;;;;;;;;;21.10;46.60;;;;;;1590964;75;800;-67
2021/12/29 03:05:43;;;;;;;;;;;21.10;46.60;;;;;;1590892;75;649;-67
2021/12/29 03:07:45;;;;;;;;;;;21.10;46.60;;;;;;1590761;75;762;-68
2021/12/29 03:09:47;;;;;;;;;;;21.20;46.50;;;;;;1590855;75;1135;-66
2021/12/29 03:11:49;;;;;;;;;;;21.10;46.60;;;;;;1590957;75;788;-69
2021/12/29 03:13:50;;;;;;;;;;;21.10;46.50;;;;;;1590839;75;699;-65
2021/12/29 03:15:52;;;;;;;;;;;21.20;46.50;;;;;;1590963;75;721;-65
2021/12/29 03:17:54;;;;;;;;;;;21.10;46.50;;;;;;1590770;75;809;-65
2021/12/29 03:19:56;;;;;;;;;;;21.20;46.50;;;;;;1590814;75;1926;-65
2021/12/29 03:21:58;;;;;;;;;;;21.20;46.50;;;;;;1590855;75;765;-65
2021/12/29 03:24:00;;;;;;;;;;;21.10;46.50;;;;;;1590850;75;715;-65
2021/12/29 03:26:02;;;;;;;;;;;21.10;46.50;;;;;;1590805;75;739;-65
2021/12/29 03:28:04;;;;;;;;;;;21.20;46.50;;;;;;1590697;75;710;-65
2021/12/29 03:30:06;;;;;;;;;;;21.10;46.50;;;;;;1590852;75;1136;-66
2021/12/29 03:32:10;;;;;;;;;;;21.10;46.50;;;;;;1590798;75;741;-65
2021/12/29 03:34:12;;;;;;;;;;;21.20;46.50;;;;;;1590804;75;720;-67
2021/12/29 03:36:14;;;;;;;;;;;21.10;46.50;;;;;;1590790;75;728;-65
2021/12/29 03:38:17;;;;;;;;;;;21.20;46.50;;;;;;1590867;75;767;-65
2021/12/29 03:40:19;;;;;;;;;;;21.20;46.50;;;;;;1590817;75;1962;-66
2021/12/29 03:42:21;;;;;;;;;;;21.20;46.50;;;;;;1590831;75;709;-65
2021/12/29 03:44:23;;;;;;;;;;;21.20;46.50;;;;;;1590861;75;773;-67
2021/12/29 03:46:26;;;;;;;;;;;21.20;46.50;;;;;;1590785;75;796;-67
2021/12/29 03:48:28;;;;;;;;;;;21.10;46.40;;;;;;1590728;75;803;-65
2021/12/29 03:50:30;;;;;;;;;;;21.10;46.50;;;;;;1590842;75;1116;-65
2021/12/29 03:52:32;;;;;;;;;;;21.20;46.40;;;;;;1590951;75;643;-64
2021/12/29 03:54:33;;;;;;;;;;;21.20;46.40;;;;;;1590963;75;798;-66
2021/12/29 03:56:35;;;;;;;;;;;21.10;46.40;;;;;;1590905;75;732;-65
2021/12/29 03:58:37;;;;;;;;;;;21.20;46.40;;;;;;1591679;75;779;-65
2021/12/29 04:00:39;;;;;;;;;;;21.20;46.40;;;;;;1592412;75;1943;-65
2021/12/29 04:02:41;;;;;;;;;;;21.20;46.40;;;;;;1592429;75;719;-65
2021/12/29 04:04:43;;;;;;;;;;;21.10;46.40;;;;;;1592354;75;768;-65
2021/12/29 04:06:45;;;;;;;;;;;21.10;46.40;;;;;;1592289;73;720;-65
2021/12/29 04:08:47;;;;;;;;;;;21.20;46.40;;;;;;1592447;75;739;-65
2021/12/29 04:10:49;;;;;;;;;;;21.20;46.40;;;;;;1592450;74;1214;-65
2021/12/29 04:12:51;;;;;;;;;;;21.10;46.40;;;;;;1592529;75;606;-65
2021/12/29 04:14:53;;;;;;;;;;;21.20;46.40;;;;;;1592455;75;729;-66
2021/12/29 04:16:57;;;;;;;;;;;21.20;46.30;;;;;;1598020;74;816;-67
2021/12/29 04:19:14;;;;;;;;;;;21.20;46.40;;;;;;1592309;74;830;-65
2021/12/29 04:21:18;;;;;;;;;;;21.20;46.40;;;;;;1592411;75;1922;-65
2021/12/29 04:23:20;;;;;;;;;;;21.20;46.40;;;;;;1592453;75;768;-65
2021/12/29 04:25:26;;;;;;;;;;;21.20;46.40;;;;;;1592301;75;777;-66
2021/12/29 04:27:26;;;;;;;;;;;21.20;46.40;;;;;;1591690;74;1539;-65
2021/12/29 04:29:27;;;;;;;;;;;21.20;46.40;;;;;;1597923;74;721;-67
2021/12/29 04:31:29;;;;;;;;;;;21.20;46.40;;;;;;1592516;75;765;-65
2021/12/29 04:33:31;;;;;;;;;;;21.10;46.40;;;;;;1592528;75;707;-65
2021/12/29 04:35:33;;;;;;;;;;;21.20;46.40;;;;;;1592366;75;765;-66
2021/12/29 04:37:35;;;;;;;;;;;21.10;46.40;;;;;;1592447;75;794;-66
2021/12/29 04:39:37;;;;;;;;;;;21.20;46.40;;;;;;1592297;75;1131;-66
2021/12/29 04:41:39;;;;;;;;;;;21.10;46.40;;;;;;1592933;73;2171;-61
2021/12/29 04:43:40;;;;;;;;;;;21.20;46.40;;;;;;1566914;76;767;-63
2021/12/29 04:45:42;;;;;;;;;;;21.10;46.40;;;;;;1566780;76;804;-61
2021/12/29 04:47:46;;;;;;;;;;;21.20;46.40;;;;;;1566923;76;740;-61
2021/12/29 04:49:48;;;;;;;;;;;21.20;46.40;;;;;;1566741;75;1253;-61
2021/12/29 04:52:03;;;;;;;;;;;21.20;46.40;;;;;;1544826;76;1151;-61
2021/12/29 04:53:56;;;;;;;;;;;21.20;46.40;;;;;;1561538;74;1644;-61
2021/12/29 04:55:58;;;;;;;;;;;21.20;46.50;;;;;;1569032;75;766;-62
2021/12/29 04:58:00;;;;;;;;;;;21.20;46.40;;;;;;1564629;76;662;-61
2021/12/29 05:00:02;;;;;;;;;;;21.10;46.40;;;;;;1564454;76;713;-62
2021/12/29 05:02:03;;;;;;;;;;;21.20;46.40;;;;;;1564546;76;1079;-63
2021/12/29 05:04:05;;;;;;;;;;;21.20;46.40;;;;;;1564459;76;799;-61
2021/12/29 05:08:26;;;;;;;;;;;21.10;46.40;;;;;;1564546;76;856;-62
2021/12/29 05:10:28;;;;;;;;;;;21.20;46.40;;;;;;1564380;76;1153;-61
2021/12/29 05:12:30;;;;;;;;;;;21.20;46.50;;;;;;1564486;76;706;-62
2021/12/29 05:14:31;;;;;;;;;;;21.20;46.50;;;;;;1564571;76;709;-61
2021/12/29 05:16:33;;;;;;;;;;;21.20;46.40;;;;;;1564409;76;710;-61
2021/12/29 05:18:36;;;;;;;;;;;21.20;46.40;;;;;;1564578;76;768;-61
2021/12/29 05:20:38;;;;;;;;;;;21.20;46.40;;;;;;1564445;76;1948;-61
2021/12/29 05:22:39;;;;;;;;;;;21.20;46.40;;;;;;1564452;76;653;-61
2021/12/29 05:24:41;;;;;;;;;;;21.20;46.40;;;;;;1564495;76;746;-62
2021/12/29 05:26:43;;;;;;;;;;;21.20;46.40;;;;;;1564476;76;636;-62
2021/12/29 05:28:45;;;;;;;;;;;21.20;46.40;;;;;;1564646;76;733;-63
2021/12/29 05:30:47;;;;;;;;;;;21.10;46.40;;;;;;1564541;75;1111;-63
2021/12/29 05:32:49;;;;;;;;;;;21.10;46.40;;;;;;1564414;76;748;-62
2021/12/29 05:34:51;;;;;;;;;;;21.20;46.40;;;;;;1564463;75;794;-61
2021/12/29 05:36:53;;;;;;;;;;;21.20;46.40;;;;;;1564419;76;700;-61
2021/12/29 05:38:56;;;;;;;;;;;21.20;46.40;;;;;;1564575;76;736;-61
2021/12/29 05:40:58;;;;;;;;;;;21.20;46.40;;;;;;1564425;76;1935;-62
2021/12/29 05:43:00;;;;;;;;;;;21.10;46.30;;;;;;1564460;76;665;-63
2021/12/29 05:45:03;;;;;;;;;;;21.20;46.40;;;;;;1564413;76;806;-61
2021/12/29 05:47:05;;;;;;;;;;;21.10;46.40;;;;;;1563711;76;1886;-61
2021/12/29 05:49:07;;;;;;;;;;;21.20;46.40;;;;;;1564443;76;711;-62
2021/12/29 05:51:12;;;;;;;;;;;21.20;46.40;;;;;;1564451;76;1078;-62
2021/12/29 05:53:13;;;;;;;;;;;21.20;46.30;;;;;;1564356;76;1708;-63
2021/12/29 05:55:14;;;;;;;;;;;21.20;46.40;;;;;;1564500;76;727;-61
2021/12/29 05:57:16;;;;;;;;;;;21.30;46.50;;;;;;1564623;76;731;-62
2021/12/29 05:59:18;;;;;;;;;;;21.20;46.40;;;;;;1564651;76;716;-61
2021/12/29 06:01:20;;;;;;;;;;;21.20;46.40;;;;;;1564592;76;1960;-62
2021/12/29 06:03:22;;;;;;;;;;;21.10;46.40;;;;;;1564677;75;712;-61
2021/12/29 06:05:24;;;;;;;;;;;21.20;46.40;;;;;;1543719;76;752;-62
2021/12/29 06:07:26;;;;;;;;;;;21.20;46.40;;;;;;1536983;77;922;-61
2021/12/29 06:09:27;;;;;;;;;;;21.10;46.40;;;;;;1537019;76;747;-63
2021/12/29 06:11:29;;;;;;;;;;;21.10;46.30;;;;;;1536882;77;1095;-62
2021/12/29 06:13:31;;;;;;;;;;;21.10;46.30;;;;;;1536924;77;892;-61
2021/12/29 06:15:33;;;;;;;;;;;21.20;46.30;;;;;;1536934;76;727;-62
2021/12/29 06:17:35;;;;;;;;;;;21.10;46.30;;;;;;1536939;77;740;-61
2021/12/29 06:19:37;;;;;;;;;;;21.20;46.30;;;;;;1536973;77;759;-61
2021/12/29 06:21:39;;;;;;;;;;;21.20;46.30;;;;;;1536930;77;1946;-61
2021/12/29 06:23:41;;;;;;;;;;;21.20;46.30;;;;;;1536888;77;815;-61
2021/12/29 06:25:42;;;;;;;;;;;21.20;46.40;;;;;;1536920;77;788;-61
2021/12/29 06:27:44;;;;;;;;;;;21.20;46.40;;;;;;1536922;77;780;-63
2021/12/29 06:29:46;;;;;;;;;;;21.20;46.30;;;;;;1537009;77;758;-61
2021/12/29 06:31:48;;;;;;;;;;;21.20;46.40;;;;;;1537000;77;1040;-62
2021/12/29 06:33:50;;;;;;;;;;;21.10;46.30;;;;;;1536878;76;732;-61
2021/12/29 06:35:52;;;;;;;;;;;21.10;46.30;;;;;;1537015;76;806;-61
2021/12/29 06:37:54;;;;;;;;;;;21.10;46.40;;;;;;1537030;77;711;-61
2021/12/29 06:39:56;;;;;;;;;;;21.20;46.30;;;;;;1536983;77;688;-61
2021/12/29 06:41:58;;;;;;;;;;;21.20;46.30;;;;;;1536927;77;1948;-62
2021/12/29 06:44:00;;;;;;;;;;;21.20;46.40;;;;;;1536913;77;734;-61
2021/12/29 06:46:01;;;;;;;;;;;21.20;46.30;;;;;;1536924;77;815;-61
2021/12/29 06:48:03;;;;;;;;;;;21.20;46.40;;;;;;1537004;77;721;-61
2021/12/29 06:50:06;;;;;;;;;;;21.20;46.40;;;;;;1536830;77;736;-61
2021/12/29 06:52:08;;;;;;;;;;;21.20;46.30;;;;;;1536906;77;1135;-61
2021/12/29 06:54:09;;;;;;;;;;;21.10;46.40;;;;;;1536836;77;734;-61
2021/12/29 06:56:11;;;;;;;;;;;21.20;46.40;;;;;;1536953;76;786;-61
2021/12/29 06:58:13;;;;;;;;;;;21.20;46.40;;;;;;1536965;77;715;-62
2021/12/29 07:00:15;;;;;;;;;;;21.20;46.40;;;;;;1536925;76;1102;-61
2021/12/29 07:02:17;;;;;;;;;;;21.20;46.40;;;;;;1536862;77;1916;-61
2021/12/29 07:04:19;;;;;;;;;;;21.20;46.40;;;;;;1542600;76;742;-61
2021/12/29 07:06:21;;;;;;;;;;;21.20;46.30;;;;;;1564494;76;659;-62
2021/12/29 07:08:23;;;;;;;;;;;21.20;46.30;;;;;;1564577;76;813;-63
2021/12/29 07:10:25;;;;;;;;;;;21.10;46.40;;;;;;1564393;76;1085;-62
2021/12/29 07:12:27;;;;;;;;;;;21.20;46.40;;;;;;1564551;76;744;-61
2021/12/29 07:14:29;;;;;;;;;;;21.20;46.40;;;;;;1564542;76;779;-61
2021/12/29 07:16:34;;;;;;;;;;;21.20;46.40;;;;;;1564577;76;760;-61
2021/12/29 07:18:35;;;;;;;;;;;21.20;46.30;;;;;;1564731;76;702;-61
2021/12/29 07:20:38;;;;;;;;;;;21.20;46.30;;;;;;1564511;76;1121;-61
2021/12/29 07:22:40;;;;;;;;;;;21.10;46.30;;;;;;1564572;76;1908;-62
2021/12/29 07:24:42;;;;;;;;;;;21.20;46.40;;;;;;1564619;76;737;-61
2021/12/29 07:26:44;;;;;;;;;;;21.20;46.30;;;;;;1564618;76;800;-61
2021/12/29 07:28:46;;;;;;;;;;;21.20;46.40;;;;;;1564660;75;694;-61
2021/12/29 07:30:48;;;;;;;;;;;21.20;46.30;;;;;;1564479;76;1133;-61
2021/12/29 07:32:49;;;;;;;;;;;21.20;46.40;;;;;;1564665;76;666;-61
2021/12/29 07:34:51;;;;;;;;;;;21.20;46.40;;;;;;1564445;76;726;-61
2021/12/29 07:36:53;;;;;;;;;;;21.20;46.30;;;;;;1564587;76;622;-62
2021/12/29 07:38:55;;;;;;;;;;;21.10;46.30;;;;;;1564636;76;767;-63
2021/12/29 07:40:57;;;;;;;;;;;21.20;46.40;;;;;;1564443;76;1090;-61
2021/12/29 07:42:59;;;;;;;;;;;21.20;46.30;;;;;;1564490;76;1936;-61
2021/12/29 07:45:03;;;;;;;;;;;21.20;46.30;;;;;;1564539;76;790;-62
2021/12/29 07:47:06;;;;;;;;;;;21.10;46.30;;;;;;1564415;76;1669;-62
2021/12/29 07:49:07;;;;;;;;;;;21.20;46.30;;;;;;1564528;76;722;-61
2021/12/29 07:51:09;;;;;;;;;;;21.20;46.30;;;;;;1564502;76;1092;-61
2021/12/29 07:53:12;;;;;;;;;;;21.10;46.30;;;;;;1564610;76;782;-61
2021/12/29 07:55:18;;;;;;;;;;;21.20;46.40;;;;;;1564459;76;869;-62
2021/12/29 07:57:20;;;;;;;;;;;21.30;46.50;;;;;;1564475;76;660;-61
2021/12/29 07:59:22;;;;;;;;;;;21.20;46.40;;;;;;1539052;76;840;-61
2021/12/29 08:01:24;;;;;;;;;;;21.20;46.40;;;;;;1536854;77;1948;-61
2021/12/29 08:03:26;;;;;;;;;;;21.20;46.40;;;;;;1536866;77;713;-62
2021/12/29 08:05:28;;;;;;;;;;;21.20;46.30;;;;;;1536785;77;726;-61
2021/12/29 08:07:30;;;;;;;;;;;21.30;46.40;;;;;;1536873;77;720;-61
2021/12/29 08:09:32;;;;;;;;;;;21.20;46.40;;;;;;1536888;77;659;-62
2021/12/29 08:11:34;;;;;;;;;;;21.20;46.30;;;;;;1536811;77;1091;-62
2021/12/29 08:13:36;;;;;;;;;;;21.20;46.30;;;;;;1536983;77;772;-61
2021/12/29 08:15:38;;;;;;;;;;;21.20;46.30;;;;;;1536816;77;729;-61
2021/12/29 08:17:40;;;;;;;;;;;21.10;46.30;;;;;;1536880;77;714;-61
2021/12/29 08:19:43;;;;;;;;;;;21.10;46.40;;;;;;1536875;77;642;-62
2021/12/29 08:21:44;;;;;;;;;;;21.20;46.30;;;;;;1536791;76;1916;-61
2021/12/29 08:23:46;;;;;;;;;;;21.20;46.40;;;;;;1536815;77;683;-62
2021/12/29 08:25:48;;;;;;;;;;;21.20;46.30;;;;;;1536922;77;734;-62
2021/12/29 08:27:50;;;;;;;;;;;21.20;46.30;;;;;;1536796;77;742;-63
2021/12/29 08:29:52;;;;;;;;;;;21.20;46.40;;;;;;1536987;77;785;-61
2021/12/29 08:31:56;;;;;;;;;;;21.20;46.30;;;;;;1536889;77;1083;-61
2021/12/29 08:33:58;;;;;;;;;;;21.20;46.40;;;;;;1536755;76;1705;-61
2021/12/29 08:35:59;;;;;;;;;;;21.10;46.40;;;;;;1536796;77;739;-61
2021/12/29 08:38:01;;;;;;;;;;;21.20;46.30;;;;;;1536861;77;785;-61
2021/12/29 08:40:04;;;;;;;;;;;21.20;46.30;;;;;;1536957;77;641;-61
2021/12/29 08:42:06;;;;;;;;;;;21.10;46.30;;;;;;1536713;77;1943;-61
2021/12/29 08:44:08;;;;;;;;;;;21.20;46.40;;;;;;1536864;77;778;-61
2021/12/29 08:46:09;;;;;;;;;;;21.20;46.30;;;;;;1536961;77;901;-61
2021/12/29 08:48:11;;;;;;;;;;;21.20;46.30;;;;;;1536867;77;743;-63
2021/12/29 08:50:14;;;;;;;;;;;21.20;46.30;;;;;;1536832;77;1126;-64
2021/12/29 08:52:16;;;;;;;;;;;21.30;46.50;;;;;;1536768;77;782;-61
2021/12/29 08:54:18;;;;;;;;;;;21.30;46.40;;;;;;1536935;77;794;-63
2021/12/29 08:56:20;;;;;;;;;;;21.20;46.30;;;;;;1536857;77;743;-61
2021/12/29 08:58:24;;;;;;;;;;;21.20;46.30;;;;;;1548453;76;768;-61
2021/12/29 09:00:25;;;;;;;;;;;21.20;46.30;;;;;;1564170;76;1688;-61
2021/12/29 09:02:27;;;;;;;;;;;21.20;46.30;;;;;;1564476;76;1923;-61
2021/12/29 09:04:29;;;;;;;;;;;21.20;46.30;;;;;;1564548;76;641;-61
2021/12/29 09:06:31;;;;;;;;;;;21.20;46.30;;;;;;1564552;76;788;-62
2021/12/29 09:08:32;;;;;;;;;;;21.10;46.30;;;;;;1564550;76;809;-61
2021/12/29 09:10:35;;;;;;;;;;;21.20;46.30;;;;;;1564541;76;1085;-60
2021/12/29 09:12:37;;;;;;;;;;;21.20;46.30;;;;;;1564451;76;800;-61
2021/12/29 09:14:38;;;;;;;;;;;21.20;46.30;;;;;;1564550;76;639;-61
2021/12/29 09:16:41;;;;;;;;;;;21.20;46.30;;;;;;1564545;76;743;-61
2021/12/29 09:18:43;;;;;;;;;;;21.30;46.50;;;;;;1564386;76;795;-61
2021/12/29 09:20:46;;;;;;;;;;;21.20;46.30;;;;;;1564510;76;1066;-61
2021/12/29 09:22:48;;;;;;;;;;;21.20;46.30;;;;;;1564446;76;1883;-61
2021/12/29 09:24:50;;;;;;;;;;;21.30;46.40;;;;;;1564387;76;676;-63
2021/12/29 09:26:53;;;;;;;;;;;21.20;46.30;;;;;;1564485;76;711;-60
2021/12/29 09:28:55;;;;;;;;;;;21.20;46.30;;;;;;1564492;76;709;-61
2021/12/29 09:30:59;;;;;;;;;;;21.20;46.30;;;;;;1564735;76;1163;-62
2021/12/29 09:33:01;;;;;;;;;;;21.30;46.40;;;;;;1564629;76;2066;-62
2021/12/29 09:35:03;;;;;;;;;;;21.20;46.30;;;;;;1564489;76;737;-62
2021/12/29 09:37:06;;;;;;;;;;;21.20;46.30;;;;;;1564732;76;801;-63
2021/12/29 09:39:08;;;;;;;;;;;21.30;46.40;;;;;;1564579;76;726;-61
2021/12/29 09:41:11;;;;;;;;;;;21.20;46.30;;;;;;1564665;76;1157;-61
2021/12/29 09:43:13;;;;;;;;;;;21.20;46.30;;;;;;1564495;76;1898;-63
2021/12/29 09:45:15;;;;;;;;;;;21.20;46.30;;;;;;1564577;76;674;-61
2021/12/29 09:47:17;;;;;;;;;;;21.20;46.30;;;;;;1564601;76;780;-62
2021/12/29 09:49:19;;;;;;;;;;;21.20;46.30;;;;;;1564532;76;729;-61
2021/12/29 09:51:21;;;;;;;;;;;21.30;46.40;;;;;;1564692;76;1147;-61
2021/12/29 09:53:23;;;;;;;;;;;21.30;46.40;;;;;;1564659;76;773;-61
2021/12/29 09:55:25;;;;;;;;;;;21.30;46.30;;;;;;1564488;76;723;-61
2021/12/29 09:57:27;;;;;;;;;;;21.20;46.20;;;;;;1564578;76;774;-61
2021/12/29 09:59:29;;;;;;;;;;;21.30;46.40;;;;;;1564492;76;810;-61
2021/12/29 10:01:31;;;;;;;;;;;21.20;46.30;;;;;;1564720;76;1101;-61
2021/12/29 10:03:32;;;;;;;;;;;21.30;46.40;;;;;;1564566;76;1943;-63
2021/12/29 10:05:35;;;;;;;;;;;21.30;46.40;;;;;;1564450;76;780;-62
2021/12/29 10:07:36;;;;;;;;;;;21.20;46.30;;;;;;1564632;76;716;-63
2021/12/29 10:09:38;;;;;;;;;;;21.30;46.40;;;;;;1564644;76;778;-62
2021/12/29 10:11:40;;;;;;;;;;;21.30;46.30;;;;;;1564658;76;1113;-62
2021/12/29 10:13:43;;;;;;;;;;;21.30;46.40;;;;;;1564667;76;759;-62
2021/12/29 10:15:46;;;;;;;;;;;21.20;46.20;;;;;;1564449;76;723;-62
2021/12/29 10:17:48;;;;;;;;;;;21.30;46.40;;;;;;1564535;76;757;-63
2021/12/29 10:19:50;;;;;;;;;;;21.20;46.30;;;;;;1542454;77;1689;-62
2021/12/29 10:21:51;;;;;;;;;;;21.30;46.40;;;;;;1542484;77;1270;-62
2021/12/29 10:23:54;;;;;;;;;;;21.30;46.30;;;;;;1564546;76;1938;-64
2021/12/29 10:25:56;;;;;;;;;;;21.20;46.30;;;;;;1564436;76;731;-62
2021/12/29 10:27:58;;;;;;;;;;;21.20;46.20;;;;;;1564577;76;642;-62
2021/12/29 10:30:02;;;;;;;;;;;21.30;46.40;;;;;;1564670;76;565;-61
2021/12/29 10:32:04;;;;;;;;;;;21.30;46.30;;;;;;1564539;76;1074;-63
2021/12/29 10:34:07;;;;;;;;;;;21.30;46.40;;;;;;1564571;76;693;-64
2021/12/29 10:36:13;;;;;;;;;;;21.30;46.40;;;;;;1564377;76;755;-63
2021/12/29 10:38:19;;;;;;;;;;;21.20;46.20;;;;;;1564440;76;784;-63
2021/12/29 10:40:40;;;;;;;;;;;21.20;46.30;;;;;;1564567;76;1160;-61
2021/12/29 10:42:42;;;;;;;;;;;21.30;46.60;;;;;;1557383;75;1957;-66
2021/12/29 10:44:51;;;;;;;;;;;21.30;46.30;;;;;;1547069;76;1003;-66
2021/12/29 10:46:56;;;;;;;;;;;21.20;46.20;;;;;;1559913;76;766;-67
2021/12/29 10:48:56;;;;;;;;;;;21.30;46.40;;;;;;1559824;75;1181;-66
2021/12/29 10:51:00;;;;;;;;;;;21.30;46.30;;;;;;1560064;75;1180;-66
2021/12/29 10:53:01;;;;;;;;;;;21.30;46.40;;;;;;1550719;77;827;-67
2021/12/29 10:55:05;;;;;;;;;;;21.20;46.30;;;;;;1530027;77;720;-67
2021/12/29 10:57:08;;;;;;;;;;;21.30;46.30;;;;;;1528973;77;719;-66
2021/12/29 10:59:13;;;;;;;;;;;21.30;46.30;;;;;;1529446;77;808;-64
2021/12/29 11:01:15;;;;;;;;;;;21.20;46.20;;;;;;1537816;77;1083;-66
2021/12/29 11:03:21;;;;;;;;;;;21.20;46.30;;;;;;1537873;77;1908;-66
2021/12/29 11:05:23;;;;;;;;;;;21.30;46.40;;;;;;1510985;79;754;-66
2021/12/29 11:07:26;;;;;;;;;;;21.30;46.30;;;;;;1536125;77;735;-66
2021/12/29 11:09:29;;;;;;;;;;;21.30;46.30;;;;;;1512295;79;709;-65
2021/12/29 11:11:38;;;;;;;;;;;21.30;46.40;;;;;;1537562;77;1118;-66
2021/12/29 11:13:41;;;;;;;;;;;21.30;46.40;;;;;;1537644;77;686;-66
2021/12/29 11:15:43;;;;;;;;;;;21.20;46.30;;;;;;1537547;77;744;-68
2021/12/29 11:17:45;;;;;;;;;;;21.20;46.30;;;;;;1537554;77;914;-66
2021/12/29 11:19:57;;;;;;;;;;;21.30;46.40;;;;;;1537653;77;757;-66
2021/12/29 11:22:11;;;;;;;;;;;21.30;46.40;;;;;;1537511;77;1105;-68
2021/12/29 11:24:14;;;;;;;;;;;21.30;46.40;;;;;;1537538;77;1910;-66
2021/12/29 11:26:16;;;;;;;;;;;21.30;46.40;;;;;;1537671;77;694;-66
2021/12/29 11:28:22;;;;;;;;;;;21.30;46.40;;;;;;1537690;77;725;-66
2021/12/29 11:30:24;;;;;;;;;;;21.20;46.30;;;;;;1537681;77;777;-66
2021/12/29 11:32:27;;;;;;;;;;;21.20;46.30;;;;;;1537648;77;1114;-68
2021/12/29 11:34:29;;;;;;;;;;;21.30;46.40;;;;;;1537604;77;717;-66
2021/12/29 11:36:31;;;;;;;;;;;21.20;46.30;;;;;;1537528;77;796;-66
2021/12/29 11:38:34;;;;;;;;;;;21.30;46.30;;;;;;1537691;77;766;-66
2021/12/29 11:40:40;;;;;;;;;;;21.30;46.40;;;;;;1537584;77;1099;-66
2021/12/29 11:42:41;;;;;;;;;;;21.30;46.30;;;;;;1537033;77;2209;-66
2021/12/29 11:44:44;;;;;;;;;;;21.30;46.30;;;;;;1537713;77;781;-66
2021/12/29 11:46:46;;;;;;;;;;;21.30;46.30;;;;;;1537596;77;671;-66
2021/12/29 11:48:48;;;;;;;;;;;21.30;46.30;;;;;;1537590;77;736;-66
2021/12/29 11:50:54;;;;;;;;;;;21.30;46.30;;;;;;1537645;77;1142;-66
2021/12/29 11:53:04;;;;;;;;;;;21.30;46.40;;;;;;1536608;77;1832;-66
2021/12/29 11:55:13;;;;;;;;;;;21.30;46.30;;;;;;1534094;77;716;-69
2021/12/29 11:57:16;;;;;;;;;;;21.30;46.30;;;;;;1537631;77;714;-66
2021/12/29 11:59:17;;;;;;;;;;;21.20;46.20;;;;;;1537542;77;788;-67
2021/12/29 12:01:21;;;;;;;;;;;21.30;46.40;;;;;;1537701;77;1130;-68
2021/12/29 12:03:22;;;;;;;;;;;21.20;46.30;;;;;;1537558;77;1912;-67
2021/12/29 12:05:26;;;;;;;;;;;21.30;46.40;;;;;;1537396;77;812;-66
2021/12/29 12:07:28;;;;;;;;;;;21.20;46.30;;;;;;1536330;77;1171;-67
2021/12/29 12:09:30;;;;;;;;;;;21.30;46.30;;;;;;1537614;77;734;-68
2021/12/29 12:11:32;;;;;;;;;;;21.20;46.30;;;;;;1537652;77;1063;-66